sensor_id;sensor_type;location;lat;lon;timestamp;P1;durP1;ratioP1;P2;durP2;ratioP2
44985;SDS011;30721;49.380;7.736;2022-07-06T00:01:19;3.13;;;2.83;;
44985;SDS011;30721;49.380;7.736;2022-07-06T00:03:44;4.80;;;2.70;;
44985;SDS011;30721;49.380;7.736;2022-07-06T00:06:10;4.03;;;3.65;;
44985;SDS011;30721;49.380;7.736;2022-07-06T00:08:35;3.22;;;2.70;;
44985;SDS011;30721;49.380;7.736;2022-07-06T00:11:01;3.15;;;2.33;;
44985;SDS011;30721;49.380;7.736;2022-07-06T00:13:27;2.75;;;2.50;;
44985;SDS011;30721;49.380;7.736;2022-07-06T00:15:52;2.67;;;2.40;;
44985;SDS011;30721;49.380;7.736;2022-07-06T00:18:18;3.75;;;2.22;;
44985;SDS011;30721;49.380;7.736;2022-07-06T00:20:43;3.35;;;2.72;;
44985;SDS011;30721;49.380;7.736;2022-07-06T00:23:09;3.50;;;2.55;;
44985;SDS011;30721;49.380;7.736;2022-07-06T00:25:34;3.13;;;2.38;;
44985;SDS011;30721;49.380;7.736;2022-07-06T00:27:59;3.13;;;2.58;;
44985;SDS011;30721;49.380;7.736;2022-07-06T00:30:25;4.30;;;2.92;;
44985;SDS011;30721;49.380;7.736;2022-07-06T00:32:50;4.18;;;2.90;;
44985;SDS011;30721;49.380;7.736;2022-07-06T00:35:15;3.00;;;2.75;;
44985;SDS011;30721;49.380;7.736;2022-07-06T00:37:41;4.68;;;2.70;;
44985;SDS011;30721;49.380;7.736;2022-07-06T00:40:06;4.18;;;2.45;;
44985;SDS011;30721;49.380;7.736;2022-07-06T00:42:42;3.80;;;2.40;;
44985;SDS011;30721;49.380;7.736;2022-07-06T00:45:10;4.47;;;3.03;;
44985;SDS011;30721;49.380;7.736;2022-07-06T00:47:36;3.85;;;2.70;;
44985;SDS011;30721;49.380;7.736;2022-07-06T00:50:02;4.40;;;2.60;;
44985;SDS011;30721;49.380;7.736;2022-07-06T00:52:56;4.55;;;2.80;;
44985;SDS011;30721;49.380;7.736;2022-07-06T00:55:29;5.35;;;2.95;;
44985;SDS011;30721;49.380;7.736;2022-07-06T00:57:56;3.28;;;2.78;;
44985;SDS011;30721;49.380;7.736;2022-07-06T01:00:23;3.67;;;2.47;;
44985;SDS011;30721;49.380;7.736;2022-07-06T01:02:50;2.95;;;2.63;;
44985;SDS011;30721;49.380;7.736;2022-07-06T01:05:16;3.00;;;2.70;;
44985;SDS011;30721;49.380;7.736;2022-07-06T01:07:43;4.28;;;2.83;;
44985;SDS011;30721;49.380;7.736;2022-07-06T01:10:10;4.28;;;2.53;;
44985;SDS011;30721;49.380;7.736;2022-07-06T01:12:36;3.28;;;2.97;;
44985;SDS011;30721;49.380;7.736;2022-07-06T01:15:03;3.33;;;2.70;;
44985;SDS011;30721;49.380;7.736;2022-07-06T01:17:30;4.32;;;2.97;;
44985;SDS011;30721;49.380;7.736;2022-07-06T01:19:56;3.85;;;3.05;;
44985;SDS011;30721;49.380;7.736;2022-07-06T01:22:21;3.97;;;2.95;;
44985;SDS011;30721;49.380;7.736;2022-07-06T01:24:46;4.05;;;2.78;;
44985;SDS011;30721;49.380;7.736;2022-07-06T01:27:12;4.15;;;2.80;;
44985;SDS011;30721;49.380;7.736;2022-07-06T01:29:37;4.55;;;2.67;;
44985;SDS011;30721;49.380;7.736;2022-07-06T01:32:03;3.92;;;2.38;;
44985;SDS011;30721;49.380;7.736;2022-07-06T01:34:29;3.63;;;2.65;;
44985;SDS011;30721;49.380;7.736;2022-07-06T01:36:54;4.43;;;3.15;;
44985;SDS011;30721;49.380;7.736;2022-07-06T01:39:19;5.35;;;3.13;;
44985;SDS011;30721;49.380;7.736;2022-07-06T01:41:45;3.08;;;2.78;;
44985;SDS011;30721;49.380;7.736;2022-07-06T01:44:10;3.80;;;2.85;;
44985;SDS011;30721;49.380;7.736;2022-07-06T01:46:36;3.65;;;2.67;;
44985;SDS011;30721;49.380;7.736;2022-07-06T01:49:02;4.75;;;2.72;;
44985;SDS011;30721;49.380;7.736;2022-07-06T01:51:28;3.63;;;2.63;;
44985;SDS011;30721;49.380;7.736;2022-07-06T01:53:53;3.10;;;2.33;;
44985;SDS011;30721;49.380;7.736;2022-07-06T01:56:19;2.90;;;2.60;;
44985;SDS011;30721;49.380;7.736;2022-07-06T01:58:45;3.25;;;2.30;;
44985;SDS011;30721;49.380;7.736;2022-07-06T02:01:12;3.90;;;2.58;;
44985;SDS011;30721;49.380;7.736;2022-07-06T02:03:40;4.45;;;2.97;;
44985;SDS011;30721;49.380;7.736;2022-07-06T02:06:05;3.90;;;2.33;;
44985;SDS011;30721;49.380;7.736;2022-07-06T02:08:32;4.00;;;2.40;;
44985;SDS011;30721;49.380;7.736;2022-07-06T02:10:58;2.95;;;2.28;;
44985;SDS011;30721;49.380;7.736;2022-07-06T02:13:23;2.50;;;2.20;;
44985;SDS011;30721;49.380;7.736;2022-07-06T02:15:49;4.20;;;2.15;;
44985;SDS011;30721;49.380;7.736;2022-07-06T02:18:14;2.92;;;2.00;;
44985;SDS011;30721;49.380;7.736;2022-07-06T02:20:39;3.90;;;2.33;;
44985;SDS011;30721;49.380;7.736;2022-07-06T02:23:05;3.63;;;2.65;;
44985;SDS011;30721;49.380;7.736;2022-07-06T02:25:30;3.03;;;1.98;;
44985;SDS011;30721;49.380;7.736;2022-07-06T02:27:56;2.58;;;2.17;;
44985;SDS011;30721;49.380;7.736;2022-07-06T02:30:21;2.60;;;2.00;;
44985;SDS011;30721;49.380;7.736;2022-07-06T02:32:47;3.63;;;2.55;;
44985;SDS011;30721;49.380;7.736;2022-07-06T02:35:12;3.58;;;2.40;;
44985;SDS011;30721;49.380;7.736;2022-07-06T02:37:38;3.65;;;3.17;;
44985;SDS011;30721;49.380;7.736;2022-07-06T02:40:03;5.15;;;2.97;;
44985;SDS011;30721;49.380;7.736;2022-07-06T02:42:29;4.38;;;2.83;;
44985;SDS011;30721;49.380;7.736;2022-07-06T02:44:55;3.33;;;2.80;;
44985;SDS011;30721;49.380;7.736;2022-07-06T02:47:20;3.55;;;2.88;;
44985;SDS011;30721;49.380;7.736;2022-07-06T02:49:46;3.42;;;3.13;;
44985;SDS011;30721;49.380;7.736;2022-07-06T02:52:11;3.25;;;2.58;;
44985;SDS011;30721;49.380;7.736;2022-07-06T02:54:36;3.80;;;2.53;;
44985;SDS011;30721;49.380;7.736;2022-07-06T02:57:02;4.15;;;2.75;;
44985;SDS011;30721;49.380;7.736;2022-07-06T02:59:27;2.65;;;2.25;;
44985;SDS011;30721;49.380;7.736;2022-07-06T03:01:56;4.20;;;2.38;;
44985;SDS011;30721;49.380;7.736;2022-07-06T03:04:21;4.68;;;2.67;;
44985;SDS011;30721;49.380;7.736;2022-07-06T03:06:47;4.45;;;2.75;;
44985;SDS011;30721;49.380;7.736;2022-07-06T03:09:12;3.00;;;2.53;;
44985;SDS011;30721;49.380;7.736;2022-07-06T03:11:37;5.00;;;3.00;;
44985;SDS011;30721;49.380;7.736;2022-07-06T03:14:03;3.80;;;3.13;;
44985;SDS011;30721;49.380;7.736;2022-07-06T03:16:29;4.93;;;2.80;;
44985;SDS011;30721;49.380;7.736;2022-07-06T03:18:54;3.30;;;3.00;;
44985;SDS011;30721;49.380;7.736;2022-07-06T03:21:20;4.13;;;2.92;;
44985;SDS011;30721;49.380;7.736;2022-07-06T03:23:45;3.05;;;2.50;;
44985;SDS011;30721;49.380;7.736;2022-07-06T03:26:10;3.80;;;2.50;;
44985;SDS011;30721;49.380;7.736;2022-07-06T03:28:36;3.42;;;2.40;;
44985;SDS011;30721;49.380;7.736;2022-07-06T03:31:01;3.75;;;2.70;;
44985;SDS011;30721;49.380;7.736;2022-07-06T03:33:26;4.75;;;3.10;;
44985;SDS011;30721;49.380;7.736;2022-07-06T03:35:52;4.03;;;3.10;;
44985;SDS011;30721;49.380;7.736;2022-07-06T03:38:17;4.63;;;2.88;;
44985;SDS011;30721;49.380;7.736;2022-07-06T03:40:43;5.72;;;3.38;;
44985;SDS011;30721;49.380;7.736;2022-07-06T03:43:08;4.50;;;2.65;;
44985;SDS011;30721;49.380;7.736;2022-07-06T03:45:33;8.57;;;3.60;;
44985;SDS011;30721;49.380;7.736;2022-07-06T03:47:59;4.70;;;2.53;;
44985;SDS011;30721;49.380;7.736;2022-07-06T03:50:24;5.38;;;2.70;;
44985;SDS011;30721;49.380;7.736;2022-07-06T03:52:49;4.82;;;2.60;;
44985;SDS011;30721;49.380;7.736;2022-07-06T03:55:15;6.03;;;2.67;;
44985;SDS011;30721;49.380;7.736;2022-07-06T03:57:40;4.40;;;2.70;;
44985;SDS011;30721;49.380;7.736;2022-07-06T04:00:06;4.13;;;2.50;;
44985;SDS011;30721;49.380;7.736;2022-07-06T04:02:32;4.32;;;2.83;;
44985;SDS011;30721;49.380;7.736;2022-07-06T04:04:58;5.15;;;2.60;;
44985;SDS011;30721;49.380;7.736;2022-07-06T04:07:24;4.07;;;2.53;;
44985;SDS011;30721;49.380;7.736;2022-07-06T04:09:50;4.40;;;2.40;;
44985;SDS011;30721;49.380;7.736;2022-07-06T04:12:15;3.60;;;2.10;;
44985;SDS011;30721;49.380;7.736;2022-07-06T04:14:40;4.00;;;2.67;;
44985;SDS011;30721;49.380;7.736;2022-07-06T04:17:06;4.63;;;3.22;;
44985;SDS011;30721;49.380;7.736;2022-07-06T04:20:06;5.72;;;2.47;;
44985;SDS011;30721;49.380;7.736;2022-07-06T04:22:32;5.65;;;2.42;;
44985;SDS011;30721;49.380;7.736;2022-07-06T04:24:58;3.33;;;2.40;;
44985;SDS011;30721;49.380;7.736;2022-07-06T04:27:23;4.47;;;2.78;;
44985;SDS011;30721;49.380;7.736;2022-07-06T04:29:49;3.45;;;2.75;;
44985;SDS011;30721;49.380;7.736;2022-07-06T04:32:14;3.92;;;2.33;;
44985;SDS011;30721;49.380;7.736;2022-07-06T04:34:40;3.17;;;2.35;;
44985;SDS011;30721;49.380;7.736;2022-07-06T04:37:05;4.20;;;2.10;;
44985;SDS011;30721;49.380;7.736;2022-07-06T04:39:30;3.28;;;2.40;;
44985;SDS011;30721;49.380;7.736;2022-07-06T04:41:56;3.33;;;2.75;;
44985;SDS011;30721;49.380;7.736;2022-07-06T04:44:22;5.50;;;2.55;;
44985;SDS011;30721;49.380;7.736;2022-07-06T04:46:47;3.60;;;2.00;;
44985;SDS011;30721;49.380;7.736;2022-07-06T04:49:13;2.95;;;2.17;;
44985;SDS011;30721;49.380;7.736;2022-07-06T04:51:38;6.25;;;2.97;;
44985;SDS011;30721;49.380;7.736;2022-07-06T04:54:04;5.30;;;2.45;;
44985;SDS011;30721;49.380;7.736;2022-07-06T04:56:30;3.28;;;2.15;;
44985;SDS011;30721;49.380;7.736;2022-07-06T04:58:55;5.55;;;2.70;;
44985;SDS011;30721;49.380;7.736;2022-07-06T05:01:21;3.60;;;2.50;;
44985;SDS011;30721;49.380;7.736;2022-07-06T05:03:46;3.17;;;2.15;;
44985;SDS011;30721;49.380;7.736;2022-07-06T05:06:12;4.32;;;1.80;;
44985;SDS011;30721;49.380;7.736;2022-07-06T05:08:37;4.28;;;2.00;;
44985;SDS011;30721;49.380;7.736;2022-07-06T05:11:03;3.08;;;2.45;;
44985;SDS011;30721;49.380;7.736;2022-07-06T05:13:28;4.47;;;2.30;;
44985;SDS011;30721;49.380;7.736;2022-07-06T05:15:54;5.30;;;2.50;;
44985;SDS011;30721;49.380;7.736;2022-07-06T05:18:19;4.82;;;2.38;;
44985;SDS011;30721;49.380;7.736;2022-07-06T05:20:44;4.70;;;1.98;;
44985;SDS011;30721;49.380;7.736;2022-07-06T05:23:10;2.55;;;1.55;;
44985;SDS011;30721;49.380;7.736;2022-07-06T05:25:35;2.88;;;1.83;;
44985;SDS011;30721;49.380;7.736;2022-07-06T05:28:02;3.67;;;2.20;;
44985;SDS011;30721;49.380;7.736;2022-07-06T05:30:31;3.80;;;2.10;;
44985;SDS011;30721;49.380;7.736;2022-07-06T05:32:56;2.58;;;2.03;;
44985;SDS011;30721;49.380;7.736;2022-07-06T05:35:22;2.95;;;2.10;;
44985;SDS011;30721;49.380;7.736;2022-07-06T05:37:47;2.92;;;2.08;;
44985;SDS011;30721;49.380;7.736;2022-07-06T05:40:12;4.93;;;2.00;;
44985;SDS011;30721;49.380;7.736;2022-07-06T05:42:38;3.00;;;2.17;;
44985;SDS011;30721;49.380;7.736;2022-07-06T05:45:03;6.68;;;2.42;;
44985;SDS011;30721;49.380;7.736;2022-07-06T05:47:30;4.60;;;2.28;;
44985;SDS011;30721;49.380;7.736;2022-07-06T05:50:14;5.88;;;2.28;;
44985;SDS011;30721;49.380;7.736;2022-07-06T05:53:02;3.40;;;1.98;;
44985;SDS011;30721;49.380;7.736;2022-07-06T05:55:26;2.35;;;1.50;;
44985;SDS011;30721;49.380;7.736;2022-07-06T05:57:51;3.10;;;1.85;;
44985;SDS011;30721;49.380;7.736;2022-07-06T06:00:19;1.90;;;1.50;;
44985;SDS011;30721;49.380;7.736;2022-07-06T06:02:45;4.00;;;1.30;;
44985;SDS011;30721;49.380;7.736;2022-07-06T06:05:10;5.30;;;1.85;;
44985;SDS011;30721;49.380;7.736;2022-07-06T06:07:39;1.90;;;1.58;;
44985;SDS011;30721;49.380;7.736;2022-07-06T06:10:06;2.47;;;1.75;;
44985;SDS011;30721;49.380;7.736;2022-07-06T06:12:34;3.00;;;1.10;;
44985;SDS011;30721;49.380;7.736;2022-07-06T06:14:59;1.92;;;1.30;;
44985;SDS011;30721;49.380;7.736;2022-07-06T06:17:24;2.63;;;1.10;;
44985;SDS011;30721;49.380;7.736;2022-07-06T06:19:50;1.63;;;1.20;;
44985;SDS011;30721;49.380;7.736;2022-07-06T06:22:15;3.33;;;1.27;;
44985;SDS011;30721;49.380;7.736;2022-07-06T06:24:40;2.83;;;1.40;;
44985;SDS011;30721;49.380;7.736;2022-07-06T06:27:06;1.20;;;1.10;;
44985;SDS011;30721;49.380;7.736;2022-07-06T06:29:32;2.33;;;1.25;;
44985;SDS011;30721;49.380;7.736;2022-07-06T06:31:57;3.47;;;1.23;;
44985;SDS011;30721;49.380;7.736;2022-07-06T06:34:23;4.45;;;1.30;;
44985;SDS011;30721;49.380;7.736;2022-07-06T06:36:48;3.50;;;1.55;;
44985;SDS011;30721;49.380;7.736;2022-07-06T06:39:13;1.90;;;1.13;;
44985;SDS011;30721;49.380;7.736;2022-07-06T06:41:39;2.65;;;1.20;;
44985;SDS011;30721;49.380;7.736;2022-07-06T06:44:04;3.20;;;1.40;;
44985;SDS011;30721;49.380;7.736;2022-07-06T06:46:30;1.88;;;1.30;;
44985;SDS011;30721;49.380;7.736;2022-07-06T06:48:55;3.00;;;1.45;;
44985;SDS011;30721;49.380;7.736;2022-07-06T06:51:20;2.33;;;1.20;;
44985;SDS011;30721;49.380;7.736;2022-07-06T06:53:46;3.33;;;1.30;;
44985;SDS011;30721;49.380;7.736;2022-07-06T06:56:12;1.92;;;1.10;;
44985;SDS011;30721;49.380;7.736;2022-07-06T06:58:37;3.00;;;1.27;;
44985;SDS011;30721;49.380;7.736;2022-07-06T07:01:03;2.80;;;1.35;;
44985;SDS011;30721;49.380;7.736;2022-07-06T07:03:29;2.15;;;1.30;;
44985;SDS011;30721;49.380;7.736;2022-07-06T07:05:55;2.47;;;1.10;;
44985;SDS011;30721;49.380;7.736;2022-07-06T07:08:20;6.15;;;1.45;;
44985;SDS011;30721;49.380;7.736;2022-07-06T07:10:47;2.75;;;1.42;;
44985;SDS011;30721;49.380;7.736;2022-07-06T07:13:13;1.92;;;1.50;;
44985;SDS011;30721;49.380;7.736;2022-07-06T07:15:38;2.25;;;1.48;;
44985;SDS011;30721;49.380;7.736;2022-07-06T07:18:03;3.97;;;1.75;;
44985;SDS011;30721;49.380;7.736;2022-07-06T07:20:29;4.97;;;1.60;;
44985;SDS011;30721;49.380;7.736;2022-07-06T07:22:55;3.88;;;1.77;;
44985;SDS011;30721;49.380;7.736;2022-07-06T07:25:22;3.47;;;1.40;;
44985;SDS011;30721;49.380;7.736;2022-07-06T07:27:47;2.92;;;1.33;;
44985;SDS011;30721;49.380;7.736;2022-07-06T07:30:12;4.47;;;1.63;;
44985;SDS011;30721;49.380;7.736;2022-07-06T07:32:38;2.00;;;1.60;;
44985;SDS011;30721;49.380;7.736;2022-07-06T07:35:05;4.32;;;2.17;;
44985;SDS011;30721;49.380;7.736;2022-07-06T07:37:31;3.53;;;1.40;;
44985;SDS011;30721;49.380;7.736;2022-07-06T07:39:57;2.00;;;1.30;;
44985;SDS011;30721;49.380;7.736;2022-07-06T07:42:22;2.80;;;1.40;;
44985;SDS011;30721;49.380;7.736;2022-07-06T07:44:48;4.97;;;1.70;;
44985;SDS011;30721;49.380;7.736;2022-07-06T07:47:13;2.03;;;1.52;;
44985;SDS011;30721;49.380;7.736;2022-07-06T07:49:39;2.58;;;1.90;;
44985;SDS011;30721;49.380;7.736;2022-07-06T07:52:04;2.38;;;1.40;;
44985;SDS011;30721;49.380;7.736;2022-07-06T07:54:29;3.20;;;1.65;;
44985;SDS011;30721;49.380;7.736;2022-07-06T07:56:55;4.60;;;2.22;;
44985;SDS011;30721;49.380;7.736;2022-07-06T07:59:21;2.75;;;1.80;;
44985;SDS011;30721;49.380;7.736;2022-07-06T08:01:47;3.78;;;1.67;;
44985;SDS011;30721;49.380;7.736;2022-07-06T08:04:12;3.38;;;1.70;;
44985;SDS011;30721;49.380;7.736;2022-07-06T08:06:38;4.07;;;1.63;;
44985;SDS011;30721;49.380;7.736;2022-07-06T08:09:03;4.25;;;1.88;;
44985;SDS011;30721;49.380;7.736;2022-07-06T08:11:30;3.97;;;1.92;;
44985;SDS011;30721;49.380;7.736;2022-07-06T08:13:55;2.00;;;1.77;;
44985;SDS011;30721;49.380;7.736;2022-07-06T08:16:20;3.17;;;1.80;;
44985;SDS011;30721;49.380;7.736;2022-07-06T08:18:46;4.50;;;2.00;;
44985;SDS011;30721;49.380;7.736;2022-07-06T08:21:11;3.28;;;2.13;;
44985;SDS011;30721;49.380;7.736;2022-07-06T08:23:37;5.53;;;1.50;;
44985;SDS011;30721;49.380;7.736;2022-07-06T08:26:02;2.33;;;1.38;;
44985;SDS011;30721;49.380;7.736;2022-07-06T08:28:28;2.80;;;1.58;;
44985;SDS011;30721;49.380;7.736;2022-07-06T08:30:54;1.92;;;1.58;;
44985;SDS011;30721;49.380;7.736;2022-07-06T08:33:20;2.30;;;1.38;;
44985;SDS011;30721;49.380;7.736;2022-07-06T08:35:45;2.45;;;1.40;;
44985;SDS011;30721;49.380;7.736;2022-07-06T08:38:10;2.22;;;1.63;;
44985;SDS011;30721;49.380;7.736;2022-07-06T08:40:36;3.08;;;1.60;;
44985;SDS011;30721;49.380;7.736;2022-07-06T08:43:03;1.90;;;1.50;;
44985;SDS011;30721;49.380;7.736;2022-07-06T08:45:29;3.38;;;1.50;;
44985;SDS011;30721;49.380;7.736;2022-07-06T08:47:55;1.75;;;1.65;;
44985;SDS011;30721;49.380;7.736;2022-07-06T08:50:24;3.38;;;1.70;;
44985;SDS011;30721;49.380;7.736;2022-07-06T08:52:50;2.40;;;1.48;;
44985;SDS011;30721;49.380;7.736;2022-07-06T08:55:16;2.50;;;1.48;;
44985;SDS011;30721;49.380;7.736;2022-07-06T08:57:42;2.33;;;1.60;;
44985;SDS011;30721;49.380;7.736;2022-07-06T09:00:11;3.13;;;1.38;;
44985;SDS011;30721;49.380;7.736;2022-07-06T09:02:37;3.55;;;1.63;;
44985;SDS011;30721;49.380;7.736;2022-07-06T09:05:03;2.60;;;1.60;;
44985;SDS011;30721;49.380;7.736;2022-07-06T09:07:29;1.85;;;1.70;;
44985;SDS011;30721;49.380;7.736;2022-07-06T09:09:55;1.92;;;1.65;;
44985;SDS011;30721;49.380;7.736;2022-07-06T09:12:21;2.00;;;1.40;;
44985;SDS011;30721;49.380;7.736;2022-07-06T09:14:46;2.08;;;1.40;;
44985;SDS011;30721;49.380;7.736;2022-07-06T09:17:12;1.67;;;1.52;;
44985;SDS011;30721;49.380;7.736;2022-07-06T09:19:38;3.00;;;1.50;;
44985;SDS011;30721;49.380;7.736;2022-07-06T09:22:04;1.83;;;1.45;;
44985;SDS011;30721;49.380;7.736;2022-07-06T09:24:29;3.30;;;2.13;;
44985;SDS011;30721;49.380;7.736;2022-07-06T09:26:56;1.85;;;1.50;;
44985;SDS011;30721;49.380;7.736;2022-07-06T09:29:32;1.98;;;1.50;;
44985;SDS011;30721;49.380;7.736;2022-07-06T09:31:58;2.55;;;1.60;;
44985;SDS011;30721;49.380;7.736;2022-07-06T09:34:42;1.35;;;1.25;;
44985;SDS011;30721;49.380;7.736;2022-07-06T09:37:08;3.25;;;1.30;;
44985;SDS011;30721;49.380;7.736;2022-07-06T09:39:34;2.70;;;1.40;;
44985;SDS011;30721;49.380;7.736;2022-07-06T09:42:00;3.00;;;1.30;;
44985;SDS011;30721;49.380;7.736;2022-07-06T09:44:27;1.70;;;1.42;;
44985;SDS011;30721;49.380;7.736;2022-07-06T09:46:58;3.42;;;1.17;;
44985;SDS011;30721;49.380;7.736;2022-07-06T09:49:24;1.50;;;1.17;;
44985;SDS011;30721;49.380;7.736;2022-07-06T09:51:51;2.08;;;0.90;;
44985;SDS011;30721;49.380;7.736;2022-07-06T09:54:18;1.33;;;1.23;;
44985;SDS011;30721;49.380;7.736;2022-07-06T09:56:45;1.63;;;1.10;;
44985;SDS011;30721;49.380;7.736;2022-07-06T09:59:16;1.23;;;0.80;;
44985;SDS011;30721;49.380;7.736;2022-07-06T10:01:43;1.70;;;1.42;;
44985;SDS011;30721;49.380;7.736;2022-07-06T10:04:09;1.10;;;1.00;;
44985;SDS011;30721;49.380;7.736;2022-07-06T10:06:38;1.90;;;1.08;;
44985;SDS011;30721;49.380;7.736;2022-07-06T10:09:07;0.93;;;0.82;;
44985;SDS011;30721;49.380;7.736;2022-07-06T10:11:34;0.88;;;0.77;;
44985;SDS011;30721;49.380;7.736;2022-07-06T10:14:04;0.98;;;0.90;;
44985;SDS011;30721;49.380;7.736;2022-07-06T10:16:31;1.65;;;1.00;;
44985;SDS011;30721;49.380;7.736;2022-07-06T10:18:56;0.80;;;0.80;;
44985;SDS011;30721;49.380;7.736;2022-07-06T10:21:22;1.42;;;0.90;;
44985;SDS011;30721;49.380;7.736;2022-07-06T10:23:51;1.42;;;0.75;;
44985;SDS011;30721;49.380;7.736;2022-07-06T10:26:17;2.15;;;0.95;;
44985;SDS011;30721;49.380;7.736;2022-07-06T10:28:44;0.70;;;0.70;;
44985;SDS011;30721;49.380;7.736;2022-07-06T10:31:12;1.83;;;1.10;;
44985;SDS011;30721;49.380;7.736;2022-07-06T10:33:38;1.20;;;1.00;;
44985;SDS011;30721;49.380;7.736;2022-07-06T10:36:04;2.05;;;1.17;;
44985;SDS011;30721;49.380;7.736;2022-07-06T10:38:31;1.55;;;1.30;;
44985;SDS011;30721;49.380;7.736;2022-07-06T10:41:04;1.20;;;1.10;;
44985;SDS011;30721;49.380;7.736;2022-07-06T10:43:35;1.25;;;1.02;;
44985;SDS011;30721;49.380;7.736;2022-07-06T10:46:06;1.58;;;1.08;;
44985;SDS011;30721;49.380;7.736;2022-07-06T10:48:36;1.45;;;1.20;;
44985;SDS011;30721;49.380;7.736;2022-07-06T10:51:05;1.33;;;1.13;;
44985;SDS011;30721;49.380;7.736;2022-07-06T10:53:32;1.40;;;1.20;;
44985;SDS011;30721;49.380;7.736;2022-07-06T10:55:59;1.27;;;1.17;;
44985;SDS011;30721;49.380;7.736;2022-07-06T11:01:08;1.80;;;1.10;;
44985;SDS011;30721;49.380;7.736;2022-07-06T11:03:35;1.52;;;1.20;;
44985;SDS011;30721;49.380;7.736;2022-07-06T11:06:09;1.30;;;1.20;;
44985;SDS011;30721;49.380;7.736;2022-07-06T11:11:21;2.42;;;1.80;;
44985;SDS011;30721;49.380;7.736;2022-07-06T11:13:57;2.55;;;1.40;;
44985;SDS011;30721;49.380;7.736;2022-07-06T11:16:24;2.13;;;1.42;;
44985;SDS011;30721;49.380;7.736;2022-07-06T11:19:10;2.97;;;2.08;;
44985;SDS011;30721;49.380;7.736;2022-07-06T11:21:43;3.33;;;1.85;;
44985;SDS011;30721;49.380;7.736;2022-07-06T11:24:14;2.17;;;1.58;;
44985;SDS011;30721;49.380;7.736;2022-07-06T11:26:41;1.65;;;1.55;;
44985;SDS011;30721;49.380;7.736;2022-07-06T11:29:10;1.92;;;1.60;;
44985;SDS011;30721;49.380;7.736;2022-07-06T11:31:42;3.05;;;1.60;;
44985;SDS011;30721;49.380;7.736;2022-07-06T11:34:11;1.85;;;1.45;;
44985;SDS011;30721;49.380;7.736;2022-07-06T11:36:39;1.73;;;1.45;;
44985;SDS011;30721;49.380;7.736;2022-07-06T11:39:06;1.70;;;1.60;;
44985;SDS011;30721;49.380;7.736;2022-07-06T11:41:31;2.08;;;1.30;;
44985;SDS011;30721;49.380;7.736;2022-07-06T11:43:57;1.60;;;1.50;;
44985;SDS011;30721;49.380;7.736;2022-07-06T11:48:50;2.55;;;1.10;;
44985;SDS011;30721;49.380;7.736;2022-07-06T11:51:17;2.15;;;1.13;;
44985;SDS011;30721;49.380;7.736;2022-07-06T11:53:46;3.17;;;1.20;;
44985;SDS011;30721;49.380;7.736;2022-07-06T11:56:16;1.63;;;1.20;;
44985;SDS011;30721;49.380;7.736;2022-07-06T11:58:48;1.35;;;1.15;;
44985;SDS011;30721;49.380;7.736;2022-07-06T12:01:14;1.33;;;1.10;;
44985;SDS011;30721;49.380;7.736;2022-07-06T12:03:40;2.50;;;1.20;;
44985;SDS011;30721;49.380;7.736;2022-07-06T12:06:12;1.50;;;0.98;;
44985;SDS011;30721;49.380;7.736;2022-07-06T12:08:46;1.58;;;1.23;;
44985;SDS011;30721;49.380;7.736;2022-07-06T12:13:50;1.85;;;1.00;;
44985;SDS011;30721;49.380;7.736;2022-07-06T12:16:16;1.13;;;1.00;;
44985;SDS011;30721;49.380;7.736;2022-07-06T12:18:46;1.63;;;1.33;;
44985;SDS011;30721;49.380;7.736;2022-07-06T12:21:17;1.73;;;0.80;;
44985;SDS011;30721;49.380;7.736;2022-07-06T12:23:44;1.70;;;1.10;;
44985;SDS011;30721;49.380;7.736;2022-07-06T12:26:13;0.88;;;0.88;;
44985;SDS011;30721;49.380;7.736;2022-07-06T12:28:40;1.63;;;1.52;;
44985;SDS011;30721;49.380;7.736;2022-07-06T12:31:05;0.95;;;0.93;;
44985;SDS011;30721;49.380;7.736;2022-07-06T12:33:31;1.55;;;0.90;;
44985;SDS011;30721;49.380;7.736;2022-07-06T12:35:57;1.23;;;0.77;;
44985;SDS011;30721;49.380;7.736;2022-07-06T12:38:40;3.30;;;1.50;;
44985;SDS011;30721;49.380;7.736;2022-07-06T12:41:09;2.45;;;1.10;;
44985;SDS011;30721;49.380;7.736;2022-07-06T12:43:40;2.15;;;0.88;;
44985;SDS011;30721;49.380;7.736;2022-07-06T12:48:55;2.55;;;0.90;;
44985;SDS011;30721;49.380;7.736;2022-07-06T12:51:21;1.48;;;0.82;;
44985;SDS011;30721;49.380;7.736;2022-07-06T12:53:46;2.25;;;0.80;;
44985;SDS011;30721;49.380;7.736;2022-07-06T12:56:12;1.67;;;0.90;;
44985;SDS011;30721;49.380;7.736;2022-07-06T12:58:39;2.03;;;1.27;;
44985;SDS011;30721;49.380;7.736;2022-07-06T13:01:04;1.73;;;0.82;;
44985;SDS011;30721;49.380;7.736;2022-07-06T13:03:39;2.05;;;1.30;;
44985;SDS011;30721;49.380;7.736;2022-07-06T13:06:05;1.65;;;0.80;;
44985;SDS011;30721;49.380;7.736;2022-07-06T13:08:31;1.48;;;0.75;;
44985;SDS011;30721;49.380;7.736;2022-07-06T13:10:56;2.08;;;1.30;;
44985;SDS011;30721;49.380;7.736;2022-07-06T13:13:22;2.17;;;1.02;;
44985;SDS011;30721;49.380;7.736;2022-07-06T13:15:48;1.52;;;1.00;;
44985;SDS011;30721;49.380;7.736;2022-07-06T13:18:14;1.33;;;0.82;;
44985;SDS011;30721;49.380;7.736;2022-07-06T13:20:39;1.98;;;1.05;;
44985;SDS011;30721;49.380;7.736;2022-07-06T13:23:06;0.80;;;0.80;;
44985;SDS011;30721;49.380;7.736;2022-07-06T13:25:31;2.13;;;1.20;;
44985;SDS011;30721;49.380;7.736;2022-07-06T13:27:57;1.92;;;1.35;;
44985;SDS011;30721;49.380;7.736;2022-07-06T13:30:22;2.33;;;0.80;;
44985;SDS011;30721;49.380;7.736;2022-07-06T13:32:47;0.82;;;0.80;;
44985;SDS011;30721;49.380;7.736;2022-07-06T13:35:13;2.65;;;1.05;;
44985;SDS011;30721;49.380;7.736;2022-07-06T13:37:39;1.33;;;0.93;;
44985;SDS011;30721;49.380;7.736;2022-07-06T13:40:04;0.80;;;0.80;;
44985;SDS011;30721;49.380;7.736;2022-07-06T13:42:30;0.75;;;0.75;;
44985;SDS011;30721;49.380;7.736;2022-07-06T13:44:55;1.77;;;0.85;;
44985;SDS011;30721;49.380;7.736;2022-07-06T13:47:20;1.38;;;0.77;;
44985;SDS011;30721;49.380;7.736;2022-07-06T13:49:46;0.80;;;0.60;;
44985;SDS011;30721;49.380;7.736;2022-07-06T13:52:12;0.82;;;0.63;;
44985;SDS011;30721;49.380;7.736;2022-07-06T13:54:38;1.00;;;0.63;;
44985;SDS011;30721;49.380;7.736;2022-07-06T13:57:04;0.80;;;0.75;;
44985;SDS011;30721;49.380;7.736;2022-07-06T13:59:30;2.10;;;0.70;;
44985;SDS011;30721;49.380;7.736;2022-07-06T14:01:56;2.33;;;0.60;;
44985;SDS011;30721;49.380;7.736;2022-07-06T14:04:21;1.13;;;0.70;;
44985;SDS011;30721;49.380;7.736;2022-07-06T14:06:47;3.17;;;0.70;;
44985;SDS011;30721;49.380;7.736;2022-07-06T14:09:12;0.85;;;0.80;;
44985;SDS011;30721;49.380;7.736;2022-07-06T14:11:38;0.80;;;0.73;;
44985;SDS011;30721;49.380;7.736;2022-07-06T14:14:03;1.67;;;0.80;;
44985;SDS011;30721;49.380;7.736;2022-07-06T14:16:31;0.38;;;0.38;;
44985;SDS011;30721;49.380;7.736;2022-07-06T14:18:59;0.68;;;0.60;;
44985;SDS011;30721;49.380;7.736;2022-07-06T14:21:24;0.68;;;0.50;;
44985;SDS011;30721;49.380;7.736;2022-07-06T14:23:50;1.00;;;0.63;;
44985;SDS011;30721;49.380;7.736;2022-07-06T14:26:15;1.17;;;0.60;;
44985;SDS011;30721;49.380;7.736;2022-07-06T14:28:41;1.83;;;0.70;;
44985;SDS011;30721;49.380;7.736;2022-07-06T14:31:06;1.83;;;0.60;;
44985;SDS011;30721;49.380;7.736;2022-07-06T14:33:32;3.78;;;0.77;;
44985;SDS011;30721;49.380;7.736;2022-07-06T14:35:58;1.38;;;0.55;;
44985;SDS011;30721;49.380;7.736;2022-07-06T14:38:24;1.45;;;0.60;;
44985;SDS011;30721;49.380;7.736;2022-07-06T14:40:49;0.63;;;0.50;;
44985;SDS011;30721;49.380;7.736;2022-07-06T14:43:15;1.83;;;0.73;;
44985;SDS011;30721;49.380;7.736;2022-07-06T14:45:42;2.28;;;0.90;;
44985;SDS011;30721;49.380;7.736;2022-07-06T14:48:09;1.27;;;0.68;;
44985;SDS011;30721;49.380;7.736;2022-07-06T14:50:35;2.30;;;0.80;;
44985;SDS011;30721;49.380;7.736;2022-07-06T14:53:00;0.70;;;0.50;;
44985;SDS011;30721;49.380;7.736;2022-07-06T14:55:26;1.23;;;0.60;;
44985;SDS011;30721;49.380;7.736;2022-07-06T14:57:51;1.58;;;0.50;;